Time;durP1;ratioP1;P1;durP2;ratioP2;P2;SDS_P1;SDS_P2;PMS_P1;PMS_P2;Temp;Humidity;BMP_temperature;BMP_pressure;BME280_temperature;BME280_humidity;BME280_pressure;Samples;Min_cycle;Max_cycle;Signal;HPM_P1;HPM_P2
2021/01/05 00:01:29;;;;;;;62.37;22.33;;;4.20;99.90;;;;;;4357927;32;20423;-74
2021/01/05 00:03:55;;;;;;;58.03;22.90;;;4.20;99.90;;;;;;4360687;32;20187;-74
2021/01/05 00:06:22;;;;;;;58.47;21.50;;;4.30;99.90;;;;;;4357614;32;20179;-74
2021/01/05 00:08:48;;;;;;;63.03;21.90;;;4.30;99.90;;;;;;4359897;32;20148;-74
2021/01/05 00:11:14;;;;;;;57.67;21.13;;;4.30;99.90;;;;;;4359037;33;20236;-74
2021/01/05 00:13:41;;;;;;;58.00;22.33;;;4.30;99.90;;;;;;4360915;32;20190;-74
2021/01/05 00:16:08;;;;;;;57.47;21.00;;;4.30;99.90;;;;;;4358659;32;20604;-74
2021/01/05 00:18:34;;;;;;;57.87;21.43;;;4.30;99.90;;;;;;4361411;32;20153;-74
2021/01/05 00:21:00;;;;;;;59.30;21.77;;;4.30;99.90;;;;;;4353112;32;20183;-74
2021/01/05 00:23:27;;;;;;;56.37;21.87;;;4.30;99.90;;;;;;4350807;33;20214;-74
2021/01/05 00:25:53;;;;;;;56.20;20.00;;;4.30;99.90;;;;;;4351287;33;20201;-74
2021/01/05 00:28:20;;;;;;;54.47;20.17;;;4.30;99.90;;;;;;4359252;32;20399;-74
2021/01/05 00:30:46;;;;;;;56.20;22.00;;;4.20;99.90;;;;;;4365684;32;20162;-74
2021/01/05 00:33:13;;;;;;;56.37;21.53;;;4.30;99.90;;;;;;4367210;32;20163;-74
2021/01/05 00:35:39;;;;;;;54.13;21.77;;;4.30;99.90;;;;;;4351573;33;20169;-74
2021/01/05 00:38:08;;;;;;;56.93;21.43;;;4.30;99.90;;;;;;4356622;32;20171;-74
2021/01/05 00:40:36;;;;;;;55.53;22.00;;;4.30;99.90;;;;;;4352214;33;20186;-74
2021/01/05 00:43:03;;;;;;;55.67;21.33;;;4.20;99.90;;;;;;4351625;33;20464;-74
2021/01/05 00:45:33;;;;;;;50.83;20.63;;;4.20;99.90;;;;;;4352413;33;20352;-74
2021/01/05 00:48:00;;;;;;;53.67;20.50;;;4.30;99.90;;;;;;4350929;33;20476;-74
2021/01/05 00:50:28;;;;;;;53.73;20.10;;;4.30;99.90;;;;;;4352255;33;20228;-74
2021/01/05 00:52:55;;;;;;;51.73;19.53;;;4.30;99.90;;;;;;4352649;33;20167;-74
2021/01/05 00:55:21;;;;;;;49.27;18.50;;;4.20;99.90;;;;;;4351315;33;20236;-74
2021/01/05 00:57:48;;;;;;;46.60;18.43;;;4.20;99.90;;;;;;4352850;32;20152;-74
2021/01/05 01:00:23;;;;;;;47.20;18.90;;;4.30;99.90;;;;;;4352091;33;20182;-74
2021/01/05 01:02:51;;;;;;;49.90;19.37;;;4.30;99.90;;;;;;4352077;32;20215;-74
2021/01/05 01:05:18;;;;;;;49.43;18.30;;;4.20;99.90;;;;;;4350795;33;20172;-74
2021/01/05 01:07:44;;;;;;;48.43;18.67;;;4.20;99.90;;;;;;4350378;33;20133;-74
2021/01/05 01:10:13;;;;;;;50.17;18.20;;;4.30;99.90;;;;;;4350407;33;20265;-74
2021/01/05 01:12:39;;;;;;;48.60;18.57;;;4.30;99.90;;;;;;4350329;33;20137;-74
2021/01/05 01:15:07;;;;;;;47.67;18.70;;;4.30;99.90;;;;;;4351204;33;20204;-74
2021/01/05 01:17:34;;;;;;;50.87;18.70;;;4.30;99.90;;;;;;4351579;33;20188;-74
2021/01/05 01:20:00;;;;;;;43.63;17.57;;;4.30;99.90;;;;;;4349868;33;20163;-74
2021/01/05 01:22:27;;;;;;;43.10;17.43;;;4.40;99.90;;;;;;4351683;33;20487;-74
2021/01/05 01:24:53;;;;;;;45.13;17.90;;;4.30;99.90;;;;;;4350539;33;20141;-74
2021/01/05 01:27:20;;;;;;;44.53;17.67;;;4.40;99.90;;;;;;4358510;32;20160;-75
2021/01/05 01:29:46;;;;;;;44.03;17.13;;;4.30;99.90;;;;;;4350202;33;20149;-74
2021/01/05 01:32:14;;;;;;;44.33;18.37;;;4.30;99.90;;;;;;4349941;33;20145;-74
2021/01/05 01:34:40;;;;;;;44.53;18.17;;;4.30;99.90;;;;;;4351193;33;20152;-74
2021/01/05 01:37:13;;;;;;;47.57;18.80;;;4.30;99.90;;;;;;4349979;33;20194;-74
2021/01/05 01:39:42;;;;;;;46.63;18.57;;;4.40;99.90;;;;;;4350858;33;20533;-74
2021/01/05 01:42:10;;;;;;;43.10;17.53;;;4.40;99.90;;;;;;4349735;33;20239;-74
2021/01/05 01:44:40;;;;;;;39.30;17.30;;;4.40;99.90;;;;;;4351326;33;20483;-74
2021/01/05 01:47:18;;;;;;;42.00;17.37;;;4.40;99.90;;;;;;4349411;32;20512;-74
2021/01/05 01:49:47;;;;;;;44.90;18.23;;;4.40;99.90;;;;;;4349807;33;20155;-74
2021/01/05 01:52:23;;;;;;;44.47;17.13;;;4.40;99.90;;;;;;4349694;33;20156;-74
2021/01/05 01:55:14;;;;;;;46.87;18.50;;;4.40;99.90;;;;;;4350123;33;20421;-74
2021/01/05 01:58:09;;;;;;;43.70;17.60;;;4.40;99.90;;;;;;4350958;33;20447;-74
2021/01/05 02:00:51;;;;;;;48.20;18.87;;;4.40;99.90;;;;;;4349702;33;20164;-74
2021/01/05 02:03:37;;;;;;;49.43;17.47;;;4.40;99.90;;;;;;4349571;33;20172;-74
2021/01/05 02:06:15;;;;;;;48.00;18.83;;;4.40;99.90;;;;;;4362222;32;20169;-74
2021/01/05 02:09:20;;;;;;;46.97;18.03;;;4.30;99.90;;;;;;4361120;32;20170;-74
2021/01/05 02:11:53;;;;;;;45.90;18.03;;;4.30;99.90;;;;;;4364071;32;20144;-74
2021/01/05 02:14:51;;;;;;;47.90;18.70;;;4.50;99.90;;;;;;4365868;32;20158;-74
2021/01/05 02:17:55;;;;;;;47.77;18.77;;;4.40;99.90;;;;;;4302708;33;20185;-74
2021/01/05 02:20:34;;;;;;;52.20;18.43;;;4.40;99.90;;;;;;4290112;33;20417;-74
2021/01/05 02:23:27;;;;;;;50.60;18.73;;;4.40;99.90;;;;;;4289295;33;20176;-74
2021/01/05 02:26:17;;;;;;;48.33;18.00;;;4.40;99.90;;;;;;4290253;33;20501;-74
2021/01/05 02:28:48;;;;;;;46.90;18.40;;;4.40;99.90;;;;;;4289232;33;20150;-74
2021/01/05 02:31:36;;;;;;;44.03;17.80;;;4.40;99.90;;;;;;4288826;33;20450;-74
2021/01/05 02:34:16;;;;;;;49.67;18.37;;;4.50;99.90;;;;;;4290065;33;20201;-74
2021/01/05 02:37:15;;;;;;;48.50;18.27;;;4.50;99.90;;;;;;4289658;33;20212;-73
2021/01/05 02:39:47;;;;;;;42.60;17.77;;;4.60;99.90;;;;;;4290336;33;20139;-73
2021/01/05 02:42:28;;;;;;;48.67;17.57;;;4.60;99.90;;;;;;4289209;33;20153;-74
2021/01/05 02:45:14;;;;;;;45.90;18.27;;;4.50;99.90;;;;;;4290135;33;20155;-74
2021/01/05 02:48:16;;;;;;;44.87;17.40;;;4.60;99.90;;;;;;4289968;33;20150;-74
2021/01/05 02:51:02;;;;;;;41.37;16.63;;;4.50;99.90;;;;;;4289912;33;20185;-75
2021/01/05 02:54:06;;;;;;;43.63;16.90;;;4.60;99.90;;;;;;4237386;33;20409;-74
2021/01/05 02:57:20;;;;;;;41.70;17.03;;;4.60;99.90;;;;;;4260432;33;20151;-74
2021/01/05 02:59:58;;;;;;;41.40;16.27;;;4.60;99.90;;;;;;4233436;34;20179;-74
2021/01/05 03:02:55;;;;;;;45.37;17.23;;;4.50;99.90;;;;;;4232228;34;20151;-74
2021/01/05 03:05:22;;;;;;;42.37;16.43;;;4.50;99.90;;;;;;4232205;34;20181;-74
2021/01/05 03:07:50;;;;;;;41.50;16.93;;;4.50;99.90;;;;;;4232354;33;20152;-74
2021/01/05 03:10:34;;;;;;;40.50;16.50;;;4.50;99.90;;;;;;4233372;33;20143;-74
2021/01/05 03:13:08;;;;;;;42.47;15.87;;;4.50;99.90;;;;;;4231703;33;20144;-74
2021/01/05 03:15:56;;;;;;;41.53;15.97;;;4.50;99.90;;;;;;4232282;33;20140;-74
2021/01/05 03:19:16;;;;;;;42.80;15.67;;;4.50;99.90;;;;;;4231744;33;20151;-74
2021/01/05 03:21:51;;;;;;;33.83;15.40;;;4.50;99.90;;;;;;4204404;34;20187;-74
2021/01/05 03:24:19;;;;;;;39.77;15.23;;;4.60;99.90;;;;;;4204273;34;20239;-74
2021/01/05 03:26:49;;;;;;;38.03;14.47;;;4.60;99.90;;;;;;4203525;34;20161;-74
2021/01/05 03:29:17;;;;;;;36.10;14.20;;;4.60;99.90;;;;;;4205112;34;20159;-74
2021/01/05 03:31:49;;;;;;;38.57;14.77;;;4.60;99.90;;;;;;4230343;34;20155;-73
2021/01/05 03:34:16;;;;;;;36.27;14.27;;;4.60;99.90;;;;;;4266645;33;20148;-74
2021/01/05 03:36:43;;;;;;;35.50;14.83;;;4.60;99.90;;;;;;4274834;33;20384;-74
2021/01/05 03:39:10;;;;;;;35.20;14.33;;;4.50;99.90;;;;;;4275598;33;20151;-73
2021/01/05 03:41:37;;;;;;;41.23;14.80;;;4.60;99.90;;;;;;4275016;33;20234;-74
2021/01/05 03:44:05;;;;;;;35.77;15.03;;;4.60;99.90;;;;;;4275201;33;20157;-73
2021/01/05 03:46:31;;;;;;;37.30;15.50;;;4.60;99.90;;;;;;4277739;33;20145;-74
2021/01/05 03:48:58;;;;;;;36.20;14.43;;;4.50;99.90;;;;;;4276867;33;20166;-73
2021/01/05 03:51:25;;;;;;;36.60;14.57;;;4.50;99.90;;;;;;4277208;33;20177;-73
2021/01/05 03:53:52;;;;;;;37.80;14.97;;;4.60;99.90;;;;;;4278027;33;20514;-73
2021/01/05 03:56:19;;;;;;;33.43;14.70;;;4.50;99.90;;;;;;4332626;33;20170;-74
2021/01/05 03:58:45;;;;;;;35.23;14.43;;;4.50;99.90;;;;;;4351314;33;20141;-73
2021/01/05 04:01:12;;;;;;;32.33;13.97;;;4.50;99.90;;;;;;4366983;32;20160;-73
2021/01/05 04:03:40;;;;;;;32.67;13.93;;;4.60;99.90;;;;;;4365917;32;20409;-73
2021/01/05 04:06:06;;;;;;;35.00;13.53;;;4.50;99.90;;;;;;4367763;32;20182;-73
2021/01/05 04:08:33;;;;;;;34.90;12.87;;;4.60;99.90;;;;;;4367312;32;20167;-73
2021/01/05 04:10:59;;;;;;;30.17;13.27;;;4.60;99.90;;;;;;4366451;32;20211;-73
2021/01/05 04:13:26;;;;;;;31.37;12.70;;;4.60;99.90;;;;;;4365973;32;20155;-73
2021/01/05 04:15:53;;;;;;;32.07;13.20;;;4.60;99.90;;;;;;4367371;32;20140;-73
2021/01/05 04:18:19;;;;;;;26.57;12.07;;;4.60;99.90;;;;;;4367272;32;20145;-73
2021/01/05 04:20:46;;;;;;;26.67;11.10;;;4.60;99.90;;;;;;4365873;32;20136;-72
2021/01/05 04:23:12;;;;;;;24.97;11.20;;;4.60;99.90;;;;;;4365837;32;20144;-73
2021/01/05 04:25:39;;;;;;;26.03;11.40;;;4.60;99.90;;;;;;4367277;32;20179;-73
2021/01/05 04:28:05;;;;;;;25.13;10.67;;;4.60;99.90;;;;;;4352609;33;20172;-73
2021/01/05 04:30:35;;;;;;;25.00;10.20;;;4.50;99.90;;;;;;4365278;32;20548;-72
2021/01/05 04:33:08;;;;;;;24.10;9.63;;;4.50;99.90;;;;;;4366589;32;20501;-73
2021/01/05 04:35:35;;;;;;;21.00;9.20;;;4.50;99.90;;;;;;4366180;32;20141;-73
2021/01/05 04:38:02;;;;;;;19.87;9.10;;;4.50;99.90;;;;;;4366718;32;20234;-73
2021/01/05 04:40:36;;;;;;;18.17;8.80;;;4.50;99.90;;;;;;4367096;32;20137;-73
2021/01/05 04:43:20;;;;;;;20.87;9.80;;;4.50;99.90;;;;;;4365571;32;20143;-73
2021/01/05 04:46:06;;;;;;;20.10;8.47;;;4.50;99.90;;;;;;4366332;32;20176;-73
2021/01/05 04:48:38;;;;;;;19.50;8.37;;;4.50;99.90;;;;;;4360229;32;20156;-75
2021/01/05 04:51:29;;;;;;;17.67;8.33;;;4.50;99.90;;;;;;4365588;32;20172;-74
2021/01/05 04:54:17;;;;;;;16.17;7.77;;;4.50;99.90;;;;;;4367395;32;20144;-74
2021/01/05 04:56:47;;;;;;;14.47;7.03;;;4.60;99.90;;;;;;4365098;32;20422;-74
2021/01/05 04:59:16;;;;;;;15.23;6.73;;;4.60;99.90;;;;;;4365638;32;20159;-74
2021/01/05 05:01:42;;;;;;;12.87;6.90;;;4.50;99.90;;;;;;4364963;32;20479;-74
2021/01/05 05:04:48;;;;;;;13.40;6.33;;;4.60;99.90;;;;;;4365043;32;20149;-74
2021/01/05 05:07:30;;;;;;;14.97;6.80;;;4.60;99.90;;;;;;4362757;32;20175;-74
2021/01/05 05:10:03;;;;;;;12.70;6.33;;;4.60;99.90;;;;;;4366425;32;20223;-73
2021/01/05 05:12:34;;;;;;;14.73;7.00;;;4.60;99.90;;;;;;4365273;32;20140;-74
2021/01/05 05:15:11;;;;;;;14.50;6.40;;;4.50;99.90;;;;;;4364295;32;20156;-73
2021/01/05 05:18:13;;;;;;;12.40;5.83;;;4.50;99.90;;;;;;4362064;32;20227;-72
2021/01/05 05:21:18;;;;;;;13.33;5.80;;;4.50;99.90;;;;;;4364702;32;20159;-73
2021/01/05 05:23:54;;;;;;;10.80;5.70;;;4.50;99.90;;;;;;4364735;32;20143;-73
2021/01/05 05:26:38;;;;;;;11.23;5.83;;;4.50;99.90;;;;;;4366401;32;20388;-73
2021/01/05 05:29:26;;;;;;;10.93;5.70;;;4.50;99.90;;;;;;4366414;32;20137;-73
2021/01/05 05:31:53;;;;;;;10.70;5.60;;;4.60;99.90;;;;;;4364390;32;20186;-73
2021/01/05 05:34:35;;;;;;;13.20;6.10;;;4.60;99.90;;;;;;4364927;32;20156;-73
2021/01/05 05:37:23;;;;;;;12.50;5.70;;;4.60;99.90;;;;;;4366362;32;20152;-73
2021/01/05 05:40:17;;;;;;;11.70;5.50;;;4.60;99.90;;;;;;4364849;32;20138;-73
2021/01/05 05:43:09;;;;;;;11.67;5.83;;;4.60;99.90;;;;;;4366092;32;20188;-73
2021/01/05 05:45:55;;;;;;;11.13;5.63;;;4.60;99.90;;;;;;4365306;32;20128;-73
2021/01/05 05:49:00;;;;;;;10.67;5.47;;;4.50;99.90;;;;;;4366578;32;20413;-73
2021/01/05 05:51:29;;;;;;;9.67;5.17;;;4.50;99.90;;;;;;4283118;33;20170;-73
2021/01/05 05:54:18;;;;;;;10.63;5.27;;;4.60;99.90;;;;;;4284510;33;20173;-73
2021/01/05 05:56:44;;;;;;;8.97;5.07;;;4.60;99.90;;;;;;4281300;33;20225;-73
2021/01/05 05:59:13;;;;;;;10.83;5.00;;;4.60;99.90;;;;;;4282500;33;20151;-73
2021/01/05 06:01:40;;;;;;;9.57;5.20;;;4.60;99.90;;;;;;4295797;33;20176;-73
2021/01/05 06:04:07;;;;;;;9.47;4.90;;;4.60;99.90;;;;;;4295695;33;20247;-73
2021/01/05 06:06:37;;;;;;;12.07;5.03;;;4.60;99.90;;;;;;4301111;33;20325;-72
2021/01/05 06:09:04;;;;;;;10.97;5.40;;;4.50;99.90;;;;;;4301899;33;20162;-72
2021/01/05 06:11:37;;;;;;;9.23;5.03;;;4.60;99.90;;;;;;4302780;33;20137;-72
2021/01/05 06:14:05;;;;;;;9.83;4.73;;;4.60;99.90;;;;;;4303986;33;20167;-72
2021/01/05 06:16:33;;;;;;;9.80;4.70;;;4.60;99.90;;;;;;4304388;33;20388;-72
2021/01/05 06:19:00;;;;;;;10.27;4.90;;;4.70;99.90;;;;;;4304941;33;20442;-72
2021/01/05 06:21:26;;;;;;;9.30;4.70;;;4.70;99.90;;;;;;4304441;33;20141;-73
2021/01/05 06:23:53;;;;;;;10.97;4.73;;;4.60;99.90;;;;;;4303215;33;20171;-73
2021/01/05 06:26:19;;;;;;;9.13;4.70;;;4.60;99.90;;;;;;4303257;33;20209;-73
2021/01/05 06:28:47;;;;;;;7.97;3.93;;;4.60;99.90;;;;;;4360738;33;20152;-73
2021/01/05 06:31:14;;;;;;;7.63;4.20;;;4.70;99.90;;;;;;4364120;32;20174;-72
2021/01/05 06:33:40;;;;;;;7.43;3.80;;;4.60;99.90;;;;;;4364136;32;20178;-73
2021/01/05 06:36:07;;;;;;;6.10;3.63;;;4.60;99.90;;;;;;4365784;32;20171;-73
2021/01/05 06:38:33;;;;;;;6.27;3.53;;;4.60;99.90;;;;;;4364115;32;20160;-73
2021/01/05 06:41:00;;;;;;;7.37;3.80;;;4.60;99.90;;;;;;4359740;33;20175;-73
2021/01/05 06:43:30;;;;;;;6.93;3.47;;;4.60;99.90;;;;;;4355364;33;20199;-74
2021/01/05 06:45:57;;;;;;;6.37;3.90;;;4.60;99.90;;;;;;4350689;33;20152;-72
2021/01/05 06:48:24;;;;;;;6.93;3.10;;;4.50;99.90;;;;;;4358145;33;20199;-72
2021/01/05 06:50:50;;;;;;;5.63;3.17;;;4.50;99.90;;;;;;4350013;33;20411;-73
2021/01/05 06:53:17;;;;;;;6.37;3.03;;;4.60;99.90;;;;;;4350259;33;20170;-72
2021/01/05 06:55:43;;;;;;;6.37;3.30;;;4.60;99.90;;;;;;4349813;33;20400;-73
2021/01/05 06:58:10;;;;;;;3.87;2.30;;;4.50;99.90;;;;;;4349142;33;20493;-73
2021/01/05 07:00:36;;;;;;;3.83;2.70;;;4.50;99.90;;;;;;4349407;33;20137;-72
2021/01/05 07:03:03;;;;;;;4.53;2.30;;;4.50;99.90;;;;;;4349069;33;20211;-73
2021/01/05 07:05:29;;;;;;;3.77;2.27;;;4.60;99.90;;;;;;4350337;33;20148;-73
2021/01/05 07:07:55;;;;;;;4.93;2.73;;;4.60;99.90;;;;;;4358693;32;20132;-73
2021/01/05 07:10:22;;;;;;;6.47;3.13;;;4.50;99.90;;;;;;4361797;32;20463;-73
2021/01/05 07:12:49;;;;;;;5.17;2.90;;;4.40;99.90;;;;;;4361712;33;20152;-73
2021/01/05 07:15:17;;;;;;;4.80;3.10;;;4.40;99.90;;;;;;4364068;32;20148;-73
2021/01/05 07:17:45;;;;;;;4.57;2.77;;;4.50;99.90;;;;;;4365772;32;20166;-72
2021/01/05 07:20:13;;;;;;;4.17;2.40;;;4.50;99.90;;;;;;4367238;32;20180;-73
2021/01/05 07:22:39;;;;;;;5.17;2.73;;;4.40;99.90;;;;;;4367503;32;20581;-73
2021/01/05 07:25:09;;;;;;;3.63;2.40;;;4.50;99.90;;;;;;4365570;32;20334;-73
2021/01/05 07:27:35;;;;;;;3.43;2.20;;;4.50;99.90;;;;;;4365827;32;20495;-73
2021/01/05 07:30:04;;;;;;;4.33;2.33;;;4.40;99.90;;;;;;4364976;32;20162;-71
2021/01/05 07:32:30;;;;;;;3.33;2.27;;;4.40;99.90;;;;;;4369068;32;20182;-73
2021/01/05 07:34:57;;;;;;;3.37;2.27;;;4.40;99.90;;;;;;4375915;32;20215;-73
2021/01/05 07:37:28;;;;;;;2.87;1.97;;;4.40;99.90;;;;;;4366953;32;20152;-72
2021/01/05 07:39:56;;;;;;;3.03;2.17;;;4.40;99.90;;;;;;4373635;32;20150;-71
2021/01/05 07:42:27;;;;;;;2.97;1.70;;;4.40;99.90;;;;;;4380600;32;20155;-73
2021/01/05 07:44:56;;;;;;;3.80;2.30;;;4.30;99.90;;;;;;4376662;32;20171;-72
2021/01/05 07:47:26;;;;;;;3.03;1.70;;;4.30;99.90;;;;;;4381625;32;20173;-72
2021/01/05 07:49:53;;;;;;;3.10;1.77;;;4.30;99.90;;;;;;4380803;32;20160;-72
2021/01/05 07:52:50;;;;;;;2.83;1.80;;;4.30;99.90;;;;;;4379597;32;20175;-73
2021/01/05 07:55:28;;;;;;;3.27;1.73;;;4.30;99.90;;;;;;4372798;32;20190;-69
2021/01/05 07:57:56;;;;;;;2.70;1.80;;;4.20;99.90;;;;;;4366132;32;20462;-69
2021/01/05 08:00:25;;;;;;;2.43;1.60;;;4.20;99.90;;;;;;4370811;32;20215;-68
2021/01/05 08:02:53;;;;;;;2.20;1.37;;;4.20;99.90;;;;;;4373131;32;20160;-68
2021/01/05 08:05:24;;;;;;;2.23;1.60;;;4.10;99.90;;;;;;4382103;32;20201;-69
2021/01/05 08:07:52;;;;;;;3.03;1.23;;;4.10;99.90;;;;;;4361373;32;20153;-69
2021/01/05 08:10:24;;;;;;;1.97;1.30;;;4.10;99.90;;;;;;4372502;32;20182;-69
2021/01/05 08:12:51;;;;;;;2.00;1.27;;;4.10;99.90;;;;;;4367125;32;20171;-69
2021/01/05 08:15:23;;;;;;;2.63;1.20;;;4.10;99.90;;;;;;4377885;32;20179;-69
2021/01/05 08:17:50;;;;;;;1.77;1.50;;;4.10;99.90;;;;;;4378574;32;20162;-69
2021/01/05 08:20:22;;;;;;;1.30;0.93;;;4.00;99.90;;;;;;4373922;32;20167;-68
2021/01/05 08:22:48;;;;;;;1.73;1.30;;;4.00;99.90;;;;;;4368971;32;20205;-69
2021/01/05 08:25:17;;;;;;;1.43;1.03;;;3.90;99.90;;;;;;4370829;32;20156;-71
2021/01/05 08:27:48;;;;;;;3.53;1.70;;;4.00;99.90;;;;;;4371955;32;20170;-69
2021/01/05 08:30:27;;;;;;;3.13;1.60;;;3.80;99.90;;;;;;4366849;32;20199;-69
2021/01/05 08:32:58;;;;;;;1.40;1.30;;;3.80;99.90;;;;;;4351990;33;20136;-69
2021/01/05 08:35:25;;;;;;;1.83;1.33;;;3.80;99.90;;;;;;4350922;33;20149;-70
2021/01/05 08:37:52;;;;;;;2.43;1.50;;;3.70;99.90;;;;;;4361371;32;20156;-68
2021/01/05 08:40:23;;;;;;;1.63;1.10;;;3.70;99.90;;;;;;4371276;32;20156;-69
2021/01/05 08:42:49;;;;;;;1.50;1.27;;;3.70;99.90;;;;;;4374633;32;20206;-69
2021/01/05 08:45:16;;;;;;;1.57;1.27;;;3.60;99.90;;;;;;4373313;32;20378;-69
2021/01/05 08:47:42;;;;;;;1.47;0.93;;;3.50;99.90;;;;;;4373600;32;20156;-67
2021/01/05 08:50:14;;;;;;;1.57;1.10;;;3.60;99.90;;;;;;4374538;32;20159;-69
2021/01/05 08:52:41;;;;;;;1.40;1.00;;;3.60;99.90;;;;;;4372033;32;20167;-68
2021/01/05 08:55:08;;;;;;;1.50;1.10;;;3.50;99.90;;;;;;4369645;32;20197;-67
2021/01/05 08:57:34;;;;;;;1.70;1.20;;;3.50;99.90;;;;;;4378012;32;20203;-68
2021/01/05 09:00:01;;;;;;;1.60;1.30;;;3.50;99.90;;;;;;4381462;32;20162;-66
2021/01/05 09:02:28;;;;;;;1.57;1.40;;;3.50;99.90;;;;;;4380720;32;20199;-67
2021/01/05 09:04:55;;;;;;;1.70;1.40;;;3.50;99.90;;;;;;4380742;32;20163;-68
2021/01/05 09:07:21;;;;;;;2.13;1.40;;;3.50;99.90;;;;;;4379921;32;20192;-71
2021/01/05 09:09:48;;;;;;;1.57;1.40;;;3.50;99.90;;;;;;4380124;32;20544;-71
2021/01/05 09:12:15;;;;;;;1.63;1.30;;;3.40;99.90;;;;;;4369702;32;20211;-72
2021/01/05 09:14:41;;;;;;;1.30;1.10;;;3.40;99.90;;;;;;4360801;32;20206;-71
2021/01/05 09:17:08;;;;;;;1.67;1.30;;;3.30;99.90;;;;;;4365961;32;20180;-71
2021/01/05 09:19:34;;;;;;;2.30;1.23;;;3.30;99.90;;;;;;4364032;32;20149;-72
2021/01/05 09:22:00;;;;;;;1.20;1.10;;;3.30;99.90;;;;;;4363719;32;20149;-72
2021/01/05 09:24:27;;;;;;;2.00;1.30;;;3.30;99.90;;;;;;4363234;32;20236;-71
2021/01/05 09:26:56;;;;;;;1.60;1.37;;;3.40;99.90;;;;;;4361157;32;20179;-72
2021/01/05 09:29:24;;;;;;;2.40;1.50;;;3.40;99.90;;;;;;4364913;32;20140;-74
2021/01/05 09:31:52;;;;;;;2.00;1.60;;;3.40;99.90;;;;;;4350144;33;20140;-74
2021/01/05 09:34:21;;;;;;;2.50;1.20;;;3.30;99.90;;;;;;4350427;33;20438;-73
2021/01/05 09:36:47;;;;;;;1.30;1.20;;;3.30;99.90;;;;;;4349962;33;20179;-73
2021/01/05 09:39:17;;;;;;;1.40;1.20;;;3.30;99.90;;;;;;4349747;33;20136;-73
2021/01/05 09:41:47;;;;;;;1.10;1.00;;;3.20;99.90;;;;;;4349331;33;20140;-73
2021/01/05 09:44:14;;;;;;;1.40;1.13;;;3.10;99.90;;;;;;4349267;33;20434;-73
2021/01/05 09:46:41;;;;;;;1.60;1.00;;;3.00;99.90;;;;;;4349753;33;20206;-72
2021/01/05 09:49:12;;;;;;;2.37;1.40;;;3.00;99.90;;;;;;4349976;32;20180;-72
2021/01/05 09:51:39;;;;;;;4.47;1.30;;;2.90;99.90;;;;;;4351686;33;20226;-70
2021/01/05 09:54:15;;;;;;;5.37;1.53;;;2.90;99.90;;;;;;4357427;32;20156;-73
2021/01/05 09:56:48;;;;;;;4.13;1.33;;;2.90;99.90;;;;;;4350323;33;20149;-72
2021/01/05 09:59:15;;;;;;;2.07;1.40;;;2.90;99.90;;;;;;4349645;33;20497;-72
2021/01/05 10:01:41;;;;;;;2.27;1.50;;;2.80;99.90;;;;;;4350328;33;20199;-72
2021/01/05 10:04:09;;;;;;;1.83;1.40;;;2.80;99.90;;;;;;4350487;33;20495;-71
2021/01/05 10:06:35;;;;;;;2.00;1.40;;;2.80;99.90;;;;;;4350601;33;20144;-72
2021/01/05 10:09:08;;;;;;;2.10;1.70;;;2.80;99.90;;;;;;4349613;33;20141;-72
2021/01/05 10:11:42;;;;;;;2.10;1.40;;;2.80;99.90;;;;;;4351122;33;20139;-71
2021/01/05 10:14:11;;;;;;;1.80;1.40;;;2.70;99.90;;;;;;4349579;33;20141;-71
2021/01/05 10:16:38;;;;;;;2.67;1.60;;;2.70;99.90;;;;;;4349608;33;20194;-71
2021/01/05 10:19:05;;;;;;;3.40;1.53;;;2.60;99.90;;;;;;4350898;33;20167;-71
2021/01/05 10:21:32;;;;;;;2.23;1.60;;;2.60;99.90;;;;;;4349496;33;20148;-72
2021/01/05 10:23:59;;;;;;;2.37;1.47;;;2.60;99.90;;;;;;4349420;32;20160;-72
2021/01/05 10:26:25;;;;;;;3.57;1.90;;;2.50;99.90;;;;;;4349936;33;20145;-71
2021/01/05 10:28:52;;;;;;;3.87;1.53;;;2.50;99.90;;;;;;4349391;33;20145;-72
2021/01/05 10:31:19;;;;;;;1.77;1.40;;;2.50;99.90;;;;;;4350790;33;20144;-71
2021/01/05 10:33:45;;;;;;;2.00;1.53;;;2.50;99.90;;;;;;4349256;33;20221;-71
2021/01/05 10:36:17;;;;;;;3.63;1.83;;;2.50;99.90;;;;;;4350605;33;20140;-71
2021/01/05 10:39:05;;;;;;;3.00;2.00;;;2.60;99.90;;;;;;4350203;33;20396;-72
2021/01/05 10:41:34;;;;;;;2.93;1.83;;;2.60;99.90;;;;;;4349280;33;20144;-72
2021/01/05 10:44:00;;;;;;;2.77;1.80;;;2.60;99.90;;;;;;4350143;33;20191;-72
2021/01/05 10:46:26;;;;;;;3.33;2.13;;;2.50;99.90;;;;;;4349302;33;20199;-71
2021/01/05 10:48:53;;;;;;;3.10;2.13;;;2.50;99.90;;;;;;4351154;33;20178;-71
2021/01/05 10:51:19;;;;;;;3.10;2.10;;;2.60;99.90;;;;;;4355883;33;20156;-71
2021/01/05 10:53:46;;;;;;;3.27;2.37;;;2.60;99.90;;;;;;4351400;33;20163;-70
2021/01/05 10:56:14;;;;;;;3.70;2.30;;;2.60;99.90;;;;;;4351967;33;20175;-72
2021/01/05 10:58:41;;;;;;;3.90;2.33;;;2.60;99.90;;;;;;4352163;33;20144;-73
2021/01/05 11:01:07;;;;;;;4.03;2.50;;;2.70;99.90;;;;;;4352137;33;20136;-72
2021/01/05 11:03:36;;;;;;;3.90;2.30;;;2.70;99.90;;;;;;4353739;33;20183;-72
2021/01/05 11:06:04;;;;;;;4.73;2.93;;;2.80;99.90;;;;;;4352048;33;20149;-72
2021/01/05 11:08:31;;;;;;;3.77;2.60;;;2.90;99.90;;;;;;4352092;33;20463;-73
2021/01/05 11:11:00;;;;;;;3.73;2.73;;;2.80;99.90;;;;;;4351973;33;20163;-72
2021/01/05 11:13:31;;;;;;;5.00;3.20;;;2.80;99.90;;;;;;4352120;33;20187;-72
2021/01/05 11:15:58;;;;;;;4.53;2.90;;;2.80;99.90;;;;;;4351719;33;20266;-72
2021/01/05 11:18:24;;;;;;;5.77;3.20;;;2.70;99.90;;;;;;4352043;33;20149;-71
2021/01/05 11:20:51;;;;;;;4.43;3.00;;;2.80;99.90;;;;;;4352570;33;20195;-72
2021/01/05 11:23:17;;;;;;;5.33;3.23;;;2.80;99.90;;;;;;4353199;33;20144;-73
2021/01/05 11:25:44;;;;;;;6.67;3.30;;;2.90;99.90;;;;;;4354061;33;20227;-73
2021/01/05 11:28:11;;;;;;;5.70;3.50;;;3.00;99.90;;;;;;4359529;32;20160;-72
2021/01/05 11:30:38;;;;;;;5.00;3.67;;;3.00;99.90;;;;;;4352794;33;20226;-73
2021/01/05 11:33:05;;;;;;;5.20;3.27;;;3.00;99.90;;;;;;4351571;33;20467;-69
2021/01/05 11:35:32;;;;;;;4.47;3.30;;;3.00;99.90;;;;;;4353101;33;20156;-68
2021/01/05 11:37:59;;;;;;;5.63;3.40;;;3.00;99.90;;;;;;4351868;33;20164;-69
2021/01/05 11:40:26;;;;;;;4.80;3.50;;;3.10;99.90;;;;;;4352838;33;20136;-68
2021/01/05 11:42:54;;;;;;;5.33;3.40;;;3.10;99.90;;;;;;4352269;33;20203;-69
2021/01/05 11:45:21;;;;;;;6.27;3.60;;;3.10;99.90;;;;;;4352375;33;20223;-69
2021/01/05 11:47:49;;;;;;;4.47;3.40;;;3.20;99.90;;;;;;4353355;33;20199;-68
2021/01/05 11:50:16;;;;;;;5.33;3.63;;;3.20;99.90;;;;;;4351468;33;20148;-69
2021/01/05 11:52:43;;;;;;;6.53;3.70;;;3.20;99.90;;;;;;4351113;33;20152;-69
2021/01/05 11:55:10;;;;;;;5.30;3.77;;;3.20;99.90;;;;;;4351432;33;20140;-67
2021/01/05 11:57:36;;;;;;;5.30;3.50;;;3.30;99.90;;;;;;4352687;33;20191;-67
2021/01/05 12:00:08;;;;;;;5.30;3.93;;;3.40;99.90;;;;;;4352621;33;20172;-67
2021/01/05 12:02:35;;;;;;;5.43;3.67;;;3.60;99.90;;;;;;4359084;32;20187;-68
2021/01/05 12:05:01;;;;;;;4.93;3.80;;;3.60;99.90;;;;;;4352386;32;20149;-67
2021/01/05 12:07:27;;;;;;;6.20;3.50;;;3.70;99.90;;;;;;4351256;33;20235;-68
2021/01/05 12:09:54;;;;;;;6.10;3.90;;;3.70;99.90;;;;;;4351141;33;20493;-69
2021/01/05 12:12:22;;;;;;;5.80;3.70;;;3.80;99.90;;;;;;4350625;33;20160;-67
2021/01/05 12:14:48;;;;;;;5.53;3.47;;;3.80;99.90;;;;;;4351270;33;20490;-68
2021/01/05 12:17:15;;;;;;;5.70;3.70;;;3.80;99.90;;;;;;4351444;33;20164;-69
2021/01/05 12:19:43;;;;;;;5.43;3.63;;;3.80;99.90;;;;;;4352002;33;20148;-65
2021/01/05 12:22:11;;;;;;;4.60;3.30;;;3.90;99.90;;;;;;4352349;33;20141;-68
2021/01/05 12:24:38;;;;;;;5.17;3.53;;;3.90;99.90;;;;;;4351515;33;20275;-68
2021/01/05 12:27:07;;;;;;;4.97;3.50;;;3.90;99.90;;;;;;4351301;33;20144;-70
2021/01/05 12:29:37;;;;;;;7.03;3.90;;;3.90;99.90;;;;;;4350698;33;20405;-69
2021/01/05 12:32:06;;;;;;;5.80;3.80;;;3.90;99.90;;;;;;4353395;33;20157;-73
2021/01/05 12:34:36;;;;;;;5.30;4.10;;;3.90;99.90;;;;;;4358263;32;20175;-71
2021/01/05 12:37:05;;;;;;;6.03;3.97;;;4.00;99.90;;;;;;4350353;33;20207;-71
2021/01/05 12:39:33;;;;;;;5.57;3.90;;;4.00;99.90;;;;;;4350655;33;20151;-72
2021/01/05 12:42:19;;;;;;;6.70;4.00;;;4.10;99.90;;;;;;4351817;33;20204;-72
2021/01/05 12:44:46;;;;;;;6.23;4.50;;;4.20;99.90;;;;;;4352113;33;20137;-73
2021/01/05 12:47:13;;;;;;;6.53;4.90;;;4.20;99.90;;;;;;4350655;33;20149;-72
2021/01/05 12:49:44;;;;;;;6.57;4.90;;;4.20;99.90;;;;;;4350673;33;20141;-71
2021/01/05 12:52:11;;;;;;;9.03;5.30;;;4.20;99.90;;;;;;4350211;33;20168;-71
2021/01/05 12:54:39;;;;;;;6.60;5.00;;;4.10;99.90;;;;;;4350383;33;20164;-70
2021/01/05 12:57:08;;;;;;;7.17;5.10;;;4.10;99.90;;;;;;4351790;33;20186;-71
2021/01/05 12:59:35;;;;;;;8.17;5.40;;;4.20;99.90;;;;;;4350264;33;20169;-72
2021/01/05 13:02:08;;;;;;;6.97;5.33;;;4.20;99.90;;;;;;4350340;33;20529;-72
2021/01/05 13:04:34;;;;;;;7.90;5.47;;;4.20;99.90;;;;;;4350937;33;20156;-72
2021/01/05 13:07:01;;;;;;;9.13;5.93;;;4.20;99.90;;;;;;4350510;33;20191;-71
2021/01/05 13:09:27;;;;;;;9.67;6.30;;;4.30;99.90;;;;;;4352045;33;20183;-72